sensor_id;sensor_type;location;lat;lon;timestamp;P1;durP1;ratioP1;P2;durP2;ratioP2
37891;SDS011;45797;47.466;9.486;2023-03-23T00:08:24;4.70;;;2.50;;
37891;SDS011;45797;47.466;9.486;2023-03-23T00:13:35;5.90;;;2.60;;
37891;SDS011;45797;47.466;9.486;2023-03-23T00:18:44;5.68;;;2.30;;
37891;SDS011;45797;47.466;9.486;2023-03-23T00:23:45;4.20;;;2.20;;
37891;SDS011;45797;47.466;9.486;2023-03-23T00:28:45;4.10;;;2.20;;
37891;SDS011;45797;47.466;9.486;2023-03-23T00:33:46;5.35;;;2.10;;
37891;SDS011;45797;47.466;9.486;2023-03-23T00:38:48;4.97;;;2.03;;
37891;SDS011;45797;47.466;9.486;2023-03-23T00:43:50;3.65;;;1.50;;
37891;SDS011;45797;47.466;9.486;2023-03-23T00:48:57;2.92;;;1.27;;
37891;SDS011;45797;47.466;9.486;2023-03-23T00:53:58;4.18;;;1.50;;
37891;SDS011;45797;47.466;9.486;2023-03-23T00:59:00;3.40;;;1.80;;
37891;SDS011;45797;47.466;9.486;2023-03-23T01:04:06;3.83;;;1.63;;
37891;SDS011;45797;47.466;9.486;2023-03-23T01:09:10;2.53;;;1.30;;
37891;SDS011;45797;47.466;9.486;2023-03-23T01:14:18;3.80;;;1.63;;
37891;SDS011;45797;47.466;9.486;2023-03-23T01:19:19;3.45;;;1.60;;
37891;SDS011;45797;47.466;9.486;2023-03-23T01:29:23;3.53;;;1.35;;
37891;SDS011;45797;47.466;9.486;2023-03-23T01:34:24;4.75;;;1.60;;
37891;SDS011;45797;47.466;9.486;2023-03-23T01:39:25;3.38;;;1.50;;
37891;SDS011;45797;47.466;9.486;2023-03-23T01:59:55;2.88;;;1.20;;
37891;SDS011;45797;47.466;9.486;2023-03-23T02:05:16;3.40;;;1.27;;
37891;SDS011;45797;47.466;9.486;2023-03-23T02:10:32;2.47;;;1.20;;
37891;SDS011;45797;47.466;9.486;2023-03-23T02:26:11;6.72;;;1.45;;
37891;SDS011;45797;47.466;9.486;2023-03-23T02:37:11;3.38;;;1.50;;
37891;SDS011;45797;47.466;9.486;2023-03-23T02:42:10;2.97;;;1.33;;
37891;SDS011;45797;47.466;9.486;2023-03-23T02:47:19;2.28;;;1.20;;
37891;SDS011;45797;47.466;9.486;2023-03-23T02:52:34;3.55;;;1.00;;
37891;SDS011;45797;47.466;9.486;2023-03-23T02:57:38;1.80;;;0.90;;
37891;SDS011;45797;47.466;9.486;2023-03-23T03:02:46;2.45;;;0.95;;
37891;SDS011;45797;47.466;9.486;2023-03-23T03:18:24;4.15;;;2.08;;
37891;SDS011;45797;47.466;9.486;2023-03-23T03:23:36;5.13;;;2.00;;
37891;SDS011;45797;47.466;9.486;2023-03-23T03:28:39;3.33;;;1.77;;
37891;SDS011;45797;47.466;9.486;2023-03-23T03:33:47;4.40;;;1.60;;
37891;SDS011;45797;47.466;9.486;2023-03-23T03:38:49;3.85;;;1.67;;
37891;SDS011;45797;47.466;9.486;2023-03-23T03:43:53;3.08;;;1.50;;
37891;SDS011;45797;47.466;9.486;2023-03-23T03:48:55;2.03;;;1.10;;
37891;SDS011;45797;47.466;9.486;2023-03-23T03:53:57;2.47;;;1.10;;
37891;SDS011;45797;47.466;9.486;2023-03-23T03:59:00;4.05;;;1.00;;
37891;SDS011;45797;47.466;9.486;2023-03-23T04:04:21;5.57;;;1.55;;
37891;SDS011;45797;47.466;9.486;2023-03-23T04:09:23;4.50;;;2.22;;
37891;SDS011;45797;47.466;9.486;2023-03-23T04:14:25;4.70;;;2.65;;
37891;SDS011;45797;47.466;9.486;2023-03-23T04:19:29;5.90;;;2.90;;
37891;SDS011;45797;47.466;9.486;2023-03-23T04:24:36;4.57;;;2.33;;
37891;SDS011;45797;47.466;9.486;2023-03-23T04:29:42;2.33;;;1.40;;
37891;SDS011;45797;47.466;9.486;2023-03-23T04:35:12;2.38;;;1.10;;
37891;SDS011;45797;47.466;9.486;2023-03-23T04:40:22;3.35;;;0.93;;
37891;SDS011;45797;47.466;9.486;2023-03-23T04:45:37;2.40;;;1.13;;
37891;SDS011;45797;47.466;9.486;2023-03-23T04:50:42;2.88;;;1.23;;
37891;SDS011;45797;47.466;9.486;2023-03-23T04:56:02;2.85;;;1.15;;
37891;SDS011;45797;47.466;9.486;2023-03-23T05:01:11;1.92;;;1.00;;
37891;SDS011;45797;47.466;9.486;2023-03-23T05:06:21;2.22;;;1.00;;
37891;SDS011;45797;47.466;9.486;2023-03-23T05:16:48;2.25;;;1.20;;
37891;SDS011;45797;47.466;9.486;2023-03-23T05:21:58;2.17;;;0.90;;
37891;SDS011;45797;47.466;9.486;2023-03-23T05:27:10;2.40;;;0.90;;
37891;SDS011;45797;47.466;9.486;2023-03-23T05:32:16;2.20;;;0.88;;
37891;SDS011;45797;47.466;9.486;2023-03-23T05:37:18;1.92;;;0.90;;
37891;SDS011;45797;47.466;9.486;2023-03-23T05:42:22;2.30;;;1.08;;
37891;SDS011;45797;47.466;9.486;2023-03-23T05:47:45;2.30;;;1.00;;
37891;SDS011;45797;47.466;9.486;2023-03-23T05:52:54;2.33;;;1.10;;
37891;SDS011;45797;47.466;9.486;2023-03-23T05:57:58;2.05;;;1.05;;
37891;SDS011;45797;47.466;9.486;2023-03-23T06:03:03;1.67;;;0.80;;
37891;SDS011;45797;47.466;9.486;2023-03-23T06:08:13;2.15;;;0.98;;
37891;SDS011;45797;47.466;9.486;2023-03-23T06:13:15;2.45;;;1.00;;
37891;SDS011;45797;47.466;9.486;2023-03-23T06:23:49;2.97;;;1.17;;
37891;SDS011;45797;47.466;9.486;2023-03-23T06:28:52;2.67;;;1.10;;
37891;SDS011;45797;47.466;9.486;2023-03-23T06:33:54;3.05;;;1.30;;
37891;SDS011;45797;47.466;9.486;2023-03-23T06:38:56;3.53;;;1.70;;
37891;SDS011;45797;47.466;9.486;2023-03-23T06:44:07;3.33;;;1.63;;
37891;SDS011;45797;47.466;9.486;2023-03-23T06:49:08;3.58;;;1.95;;
37891;SDS011;45797;47.466;9.486;2023-03-23T06:54:19;3.83;;;2.10;;
37891;SDS011;45797;47.466;9.486;2023-03-23T07:04:30;6.53;;;3.45;;
37891;SDS011;45797;47.466;9.486;2023-03-23T07:09:41;8.23;;;3.45;;
37891;SDS011;45797;47.466;9.486;2023-03-23T07:14:50;5.20;;;2.72;;
37891;SDS011;45797;47.466;9.486;2023-03-23T07:19:51;4.97;;;3.08;;
37891;SDS011;45797;47.466;9.486;2023-03-23T07:30:04;9.85;;;3.03;;
37891;SDS011;45797;47.466;9.486;2023-03-23T07:35:06;5.22;;;2.97;;
37891;SDS011;45797;47.466;9.486;2023-03-23T07:40:27;5.68;;;2.55;;
37891;SDS011;45797;47.466;9.486;2023-03-23T07:45:34;5.38;;;2.50;;
37891;SDS011;45797;47.466;9.486;2023-03-23T07:50:35;4.30;;;2.50;;
37891;SDS011;45797;47.466;9.486;2023-03-23T07:55:41;7.28;;;3.58;;
37891;SDS011;45797;47.466;9.486;2023-03-23T08:01:05;5.57;;;2.83;;
37891;SDS011;45797;47.466;9.486;2023-03-23T08:11:38;6.05;;;2.50;;
37891;SDS011;45797;47.466;9.486;2023-03-23T08:16:59;5.35;;;3.00;;
37891;SDS011;45797;47.466;9.486;2023-03-23T08:22:26;3.88;;;1.70;;
37891;SDS011;45797;47.466;9.486;2023-03-23T08:27:50;3.88;;;1.67;;
37891;SDS011;45797;47.466;9.486;2023-03-23T08:33:19;3.88;;;1.40;;
37891;SDS011;45797;47.466;9.486;2023-03-23T08:38:41;4.85;;;1.65;;
37891;SDS011;45797;47.466;9.486;2023-03-23T08:44:13;2.65;;;1.55;;
37891;SDS011;45797;47.466;9.486;2023-03-23T08:49:42;5.55;;;2.03;;
37891;SDS011;45797;47.466;9.486;2023-03-23T08:55:03;4.38;;;2.30;;
37891;SDS011;45797;47.466;9.486;2023-03-23T09:00:23;6.57;;;2.83;;
37891;SDS011;45797;47.466;9.486;2023-03-23T09:05:50;5.13;;;2.58;;
37891;SDS011;45797;47.466;9.486;2023-03-23T09:11:08;4.78;;;2.70;;
37891;SDS011;45797;47.466;9.486;2023-03-23T09:16:15;6.93;;;2.28;;
37891;SDS011;45797;47.466;9.486;2023-03-23T09:21:16;4.00;;;2.08;;
37891;SDS011;45797;47.466;9.486;2023-03-23T09:26:25;4.13;;;2.15;;
37891;SDS011;45797;47.466;9.486;2023-03-23T09:36:48;2.90;;;1.70;;
37891;SDS011;45797;47.466;9.486;2023-03-23T09:47:07;3.22;;;1.60;;
37891;SDS011;45797;47.466;9.486;2023-03-23T09:52:39;2.85;;;1.40;;
37891;SDS011;45797;47.466;9.486;2023-03-23T10:03:21;2.90;;;1.30;;
37891;SDS011;45797;47.466;9.486;2023-03-23T10:08:52;3.15;;;1.45;;
37891;SDS011;45797;47.466;9.486;2023-03-23T10:19:38;4.38;;;1.33;;
37891;SDS011;45797;47.466;9.486;2023-03-23T10:30:17;5.43;;;1.83;;
37891;SDS011;45797;47.466;9.486;2023-03-23T10:35:32;5.28;;;1.90;;
37891;SDS011;45797;47.466;9.486;2023-03-23T10:40:52;3.50;;;1.80;;
37891;SDS011;45797;47.466;9.486;2023-03-23T10:46:01;3.28;;;1.70;;
37891;SDS011;45797;47.466;9.486;2023-03-23T11:01:38;4.00;;;1.85;;
37891;SDS011;45797;47.466;9.486;2023-03-23T11:06:53;4.40;;;2.15;;
37891;SDS011;45797;47.466;9.486;2023-03-23T11:17:23;3.10;;;1.58;;
37891;SDS011;45797;47.466;9.486;2023-03-23T11:22:26;3.80;;;1.77;;
37891;SDS011;45797;47.466;9.486;2023-03-23T11:27:28;2.95;;;1.42;;
37891;SDS011;45797;47.466;9.486;2023-03-23T11:32:31;3.30;;;1.60;;
37891;SDS011;45797;47.466;9.486;2023-03-23T11:37:35;3.67;;;1.67;;
37891;SDS011;45797;47.466;9.486;2023-03-23T11:58:33;2.60;;;1.20;;
37891;SDS011;45797;47.466;9.486;2023-03-23T12:09:02;4.18;;;1.92;;
37891;SDS011;45797;47.466;9.486;2023-03-23T12:14:20;3.67;;;1.90;;
37891;SDS011;45797;47.466;9.486;2023-03-23T12:35:40;5.85;;;2.20;;
37891;SDS011;45797;47.466;9.486;2023-03-23T12:51:56;4.55;;;1.80;;
37891;SDS011;45797;47.466;9.486;2023-03-23T13:07:56;3.35;;;1.75;;
37891;SDS011;45797;47.466;9.486;2023-03-23T13:13:02;3.03;;;1.60;;
37891;SDS011;45797;47.466;9.486;2023-03-23T13:28:55;3.50;;;1.60;;
37891;SDS011;45797;47.466;9.486;2023-03-23T13:34:04;3.47;;;1.58;;
37891;SDS011;45797;47.466;9.486;2023-03-23T13:39:31;4.22;;;1.83;;
37891;SDS011;45797;47.466;9.486;2023-03-23T13:45:21;3.72;;;1.98;;
37891;SDS011;45797;47.466;9.486;2023-03-23T13:50:53;4.78;;;1.88;;
37891;SDS011;45797;47.466;9.486;2023-03-23T14:06:41;2.90;;;1.80;;
37891;SDS011;45797;47.466;9.486;2023-03-23T14:11:54;5.18;;;1.83;;
37891;SDS011;45797;47.466;9.486;2023-03-23T14:22:27;4.13;;;1.80;;
37891;SDS011;45797;47.466;9.486;2023-03-23T14:27:34;3.58;;;1.80;;
37891;SDS011;45797;47.466;9.486;2023-03-23T14:32:36;3.78;;;1.70;;
37891;SDS011;45797;47.466;9.486;2023-03-23T14:37:37;2.97;;;1.50;;
37891;SDS011;45797;47.466;9.486;2023-03-23T14:42:37;2.95;;;1.70;;
37891;SDS011;45797;47.466;9.486;2023-03-23T14:47:43;2.83;;;1.60;;
37891;SDS011;45797;47.466;9.486;2023-03-23T14:52:47;3.65;;;1.70;;
37891;SDS011;45797;47.466;9.486;2023-03-23T14:57:49;3.55;;;1.88;;
37891;SDS011;45797;47.466;9.486;2023-03-23T15:02:54;4.18;;;1.48;;
37891;SDS011;45797;47.466;9.486;2023-03-23T15:13:34;5.20;;;1.80;;
37891;SDS011;45797;47.466;9.486;2023-03-23T15:23:54;3.35;;;1.60;;
37891;SDS011;45797;47.466;9.486;2023-03-23T15:29:04;5.03;;;1.80;;
37891;SDS011;45797;47.466;9.486;2023-03-23T15:34:10;2.83;;;1.70;;
37891;SDS011;45797;47.466;9.486;2023-03-23T15:39:40;2.95;;;1.60;;
37891;SDS011;45797;47.466;9.486;2023-03-23T15:44:42;4.60;;;1.77;;
37891;SDS011;45797;47.466;9.486;2023-03-23T16:00:37;3.38;;;1.50;;
37891;SDS011;45797;47.466;9.486;2023-03-23T16:05:38;4.57;;;2.33;;
37891;SDS011;45797;47.466;9.486;2023-03-23T16:10:39;2.67;;;1.45;;
37891;SDS011;45797;47.466;9.486;2023-03-23T16:15:54;2.83;;;1.48;;
37891;SDS011;45797;47.466;9.486;2023-03-23T16:21:01;4.07;;;1.92;;
37891;SDS011;45797;47.466;9.486;2023-03-23T16:31:14;4.22;;;1.80;;
37891;SDS011;45797;47.466;9.486;2023-03-23T16:36:21;4.20;;;2.15;;
37891;SDS011;45797;47.466;9.486;2023-03-23T16:46:48;4.78;;;2.28;;
37891;SDS011;45797;47.466;9.486;2023-03-23T16:51:50;4.47;;;2.10;;
37891;SDS011;45797;47.466;9.486;2023-03-23T16:56:51;3.85;;;1.92;;
37891;SDS011;45797;47.466;9.486;2023-03-23T17:07:06;3.50;;;1.98;;
37891;SDS011;45797;47.466;9.486;2023-03-23T17:12:07;3.67;;;2.10;;
37891;SDS011;45797;47.466;9.486;2023-03-23T17:17:09;3.53;;;1.58;;
37891;SDS011;45797;47.466;9.486;2023-03-23T17:22:12;4.55;;;2.25;;
37891;SDS011;45797;47.466;9.486;2023-03-23T17:27:24;4.78;;;2.38;;
37891;SDS011;45797;47.466;9.486;2023-03-23T17:32:33;4.85;;;2.42;;
37891;SDS011;45797;47.466;9.486;2023-03-23T17:37:35;6.30;;;3.20;;
37891;SDS011;45797;47.466;9.486;2023-03-23T17:42:42;4.53;;;2.70;;
37891;SDS011;45797;47.466;9.486;2023-03-23T17:52:49;3.92;;;1.80;;
37891;SDS011;45797;47.466;9.486;2023-03-23T17:57:51;5.00;;;2.50;;
37891;SDS011;45797;47.466;9.486;2023-03-23T18:02:52;7.70;;;3.10;;
37891;SDS011;45797;47.466;9.486;2023-03-23T18:07:59;16.67;;;4.75;;
37891;SDS011;45797;47.466;9.486;2023-03-23T18:18:06;6.25;;;2.95;;
37891;SDS011;45797;47.466;9.486;2023-03-23T18:23:08;5.47;;;2.80;;
37891;SDS011;45797;47.466;9.486;2023-03-23T18:28:11;4.72;;;2.45;;
37891;SDS011;45797;47.466;9.486;2023-03-23T18:33:14;5.25;;;2.30;;
37891;SDS011;45797;47.466;9.486;2023-03-23T18:38:15;4.18;;;2.28;;
37891;SDS011;45797;47.466;9.486;2023-03-23T18:43:26;4.40;;;2.40;;
37891;SDS011;45797;47.466;9.486;2023-03-23T18:48:26;4.00;;;2.22;;
37891;SDS011;45797;47.466;9.486;2023-03-23T18:53:28;4.88;;;2.33;;
37891;SDS011;45797;47.466;9.486;2023-03-23T18:58:40;3.70;;;2.17;;
37891;SDS011;45797;47.466;9.486;2023-03-23T19:08:47;4.13;;;2.05;;
37891;SDS011;45797;47.466;9.486;2023-03-23T19:13:55;4.25;;;2.25;;
37891;SDS011;45797;47.466;9.486;2023-03-23T19:18:58;3.88;;;2.13;;
37891;SDS011;45797;47.466;9.486;2023-03-23T19:29:11;4.50;;;2.45;;
37891;SDS011;45797;47.466;9.486;2023-03-23T19:34:17;8.30;;;3.22;;
37891;SDS011;45797;47.466;9.486;2023-03-23T19:39:17;5.07;;;2.83;;
37891;SDS011;45797;47.466;9.486;2023-03-23T19:44:35;4.70;;;2.10;;
37891;SDS011;45797;47.466;9.486;2023-03-23T19:49:36;12.57;;;4.90;;
37891;SDS011;45797;47.466;9.486;2023-03-23T19:54:38;4.93;;;2.35;;
37891;SDS011;45797;47.466;9.486;2023-03-23T20:09:48;7.78;;;3.58;;
37891;SDS011;45797;47.466;9.486;2023-03-23T20:19:54;5.63;;;2.33;;
37891;SDS011;45797;47.466;9.486;2023-03-23T20:25:02;5.60;;;2.17;;
37891;SDS011;45797;47.466;9.486;2023-03-23T20:40:15;6.93;;;2.33;;
37891;SDS011;45797;47.466;9.486;2023-03-23T20:45:15;4.90;;;2.45;;
37891;SDS011;45797;47.466;9.486;2023-03-23T20:50:22;5.80;;;2.17;;
37891;SDS011;45797;47.466;9.486;2023-03-23T20:55:25;4.38;;;2.20;;
37891;SDS011;45797;47.466;9.486;2023-03-23T21:00:26;4.85;;;2.03;;
37891;SDS011;45797;47.466;9.486;2023-03-23T21:05:33;3.92;;;2.00;;
37891;SDS011;45797;47.466;9.486;2023-03-23T21:10:36;4.95;;;2.30;;
37891;SDS011;45797;47.466;9.486;2023-03-23T21:15:43;5.70;;;1.98;;
37891;SDS011;45797;47.466;9.486;2023-03-23T21:26:15;3.08;;;1.52;;
37891;SDS011;45797;47.466;9.486;2023-03-23T21:31:16;3.78;;;1.70;;
37891;SDS011;45797;47.466;9.486;2023-03-23T21:36:16;3.25;;;1.55;;
37891;SDS011;45797;47.466;9.486;2023-03-23T21:41:32;5.72;;;1.80;;
37891;SDS011;45797;47.466;9.486;2023-03-23T21:46:36;3.22;;;1.30;;
37891;SDS011;45797;47.466;9.486;2023-03-23T21:51:37;5.63;;;1.85;;
37891;SDS011;45797;47.466;9.486;2023-03-23T21:56:40;4.22;;;1.85;;
37891;SDS011;45797;47.466;9.486;2023-03-23T22:01:48;3.78;;;1.85;;
37891;SDS011;45797;47.466;9.486;2023-03-23T22:06:49;4.10;;;2.00;;
37891;SDS011;45797;47.466;9.486;2023-03-23T22:12:03;3.47;;;1.80;;
37891;SDS011;45797;47.466;9.486;2023-03-23T22:27:24;6.18;;;2.00;;
37891;SDS011;45797;47.466;9.486;2023-03-23T22:32:24;4.10;;;2.08;;
37891;SDS011;45797;47.466;9.486;2023-03-23T22:37:26;5.00;;;1.85;;
37891;SDS011;45797;47.466;9.486;2023-03-23T22:47:36;6.28;;;2.17;;
37891;SDS011;45797;47.466;9.486;2023-03-23T22:58:05;3.72;;;1.50;;
37891;SDS011;45797;47.466;9.486;2023-03-23T23:03:12;3.50;;;1.60;;
37891;SDS011;45797;47.466;9.486;2023-03-23T23:13:32;4.13;;;1.90;;
37891;SDS011;45797;47.466;9.486;2023-03-23T23:18:33;5.97;;;2.05;;
37891;SDS011;45797;47.466;9.486;2023-03-23T23:23:36;3.97;;;1.83;;
37891;SDS011;45797;47.466;9.486;2023-03-23T23:28:39;3.78;;;1.80;;
37891;SDS011;45797;47.466;9.486;2023-03-23T23:39:02;3.75;;;1.52;;
37891;SDS011;45797;47.466;9.486;2023-03-23T23:49:49;3.53;;;1.77;;
37891;SDS011;45797;47.466;9.486;2023-03-23T23:54:50;3.70;;;1.45;;
